Date,TemperatureHighF,TemperatureAvgF,TemperatureLowF,DewpointHighF,DewpointAvgF,DewpointLowF,HumidityHigh,HumidityAvg,HumidityLow,PressureMaxIn,PressureMinIn,WindSpeedMaxMPH,WindSpeedAvgMPH,GustSpeedMaxMPH,PrecipitationSumIn
2013-1-1,42.9,39.0,30.8,41.7,37.1,26.6,97,93,84,30.18,29.97,9,4,13,0.02
2013-1-2,36.0,30.8,26.7,26.8,24.3,22.6,92,77,62,30.27,30.17,7,2,12,0.04
2013-1-3,44.5,35.0,25.8,31.4,27.5,22.9,91,75,58,30.40,30.24,7,1,9,0.10
2013-1-4,49.4,37.8,28.2,33.7,29.9,25.9,93,75,49,30.47,30.36,6,1,9,0.02
2013-1-5,47.1,37.3,31.9,34.7,31.1,29.0,89,79,61,30.37,30.24,5,1,8,0.00
2013-1-8,54.8,53.7,52.7,45.2,42.4,40.9,70,66,63,30.16,30.11,5,2,10,0.00
2013-1-9,56.0,53.8,51.1,54.4,52.1,45.7,97,94,71,30.31,30.16,11,4,15,0.44
2013-1-10,67.9,59.8,-90.0,64.3,58.3,-90.3,98,95,86,30.24,29.84,14,8,20,0.11
2013-1-11,67.9,61.8,55.1,61.8,54.5,50.8,94,78,56,30.00,29.88,10,5,19,0.15
2013-1-12,71.8,38.6,-90.0,68.0,33.7,-99.9,98,75,83,29.91,29.69,10,5,18,0.36
2013-1-13,71.0,54.7,41.5,65.6,52.6,40.4,100,93,82,29.87,29.69,11,7,18,1.39
2013-1-14,30.3,29.4,28.5,25.4,24.5,23.9,83,82,81,30.29,30.24,8,5,11,0.00
2013-1-15,31.6,29.4,26.8,30.1,26.8,23.3,95,90,83,30.25,30.05,12,6,18,0.00
2013-1-16,33.7,31.9,29.9,31.1,29.5,28.1,94,91,88,30.16,30.04,5,1,11,0.07
2013-1-17,47.3,38.7,32.9,38.3,32.4,28.0,91,78,66,30.45,30.10,12,3,16,0.03
2013-1-18,54.6,41.1,28.8,32.8,29.3,26.1,91,65,38,30.54,30.32,3,0,11,0.00
2013-1-19,59.0,47.7,35.6,39.1,35.0,29.6,80,63,42,30.32,30.13,9,4,15,0.00
2013-1-20,59.0,48.3,40.2,38.5,34.7,29.4,80,61,41,30.24,30.12,9,3,11,0.00
2013-1-21,42.8,36.0,30.6,29.0,22.3,18.9,71,58,40,30.33,30.14,12,4,14,0.00
2013-1-22,38.9,33.4,27.1,22.1,19.4,15.8,74,57,43,30.41,30.28,7,2,11,0.00
2013-1-23,56.6,42.1,30.5,42.5,32.1,19.5,85,68,51,30.32,29.92,6,1,11,0.00
2013-1-24,46.3,39.8,34.6,41.9,26.3,19.6,86,59,46,30.20,29.96,13,7,0,0.00
2013-1-25,48.4,40.3,35.3,43.7,34.1,23.1,94,80,48,30.01,29.78,9,3,0,0.07
2013-1-26,52.6,44.0,33.5,36.8,34.2,32.0,94,71,47,30.09,30.00,8,3,0,0.00
2013-1-27,65.1,56.1,48.2,54.6,46.6,35.7,81,70,61,30.01,29.85,9,6,0,0.00
2013-1-28,73.1,64.4,59.0,62.3,58.1,54.0,90,80,68,29.90,29.79,12,7,23,0.01
2013-1-29,74.8,68.0,60.5,65.2,60.6,-99.9,96,79,64,29.79,29.19,18,4,29,0.58
2013-1-30,59.3,13.0,-90.0,57.9,2.3,-99.9,97,56,59,29.81,29.29,18,-14,26,0.37
2013-1-31,55.7,42.2,31.9,36.3,29.8,17.8,78,63,44,30.09,29.81,14,6,23,0.00